createdAt,value
2018-12-15T00:00:57.331Z,10.73
2018-12-15T00:03:26.144Z,11.47
2018-12-15T00:05:54.791Z,11.00
2018-12-15T00:08:23.519Z,10.70
2018-12-15T00:10:52.231Z,9.93
2018-12-15T00:13:21.012Z,9.60
2018-12-15T00:15:49.796Z,9.83
2018-12-15T00:18:18.457Z,9.47
2018-12-15T00:20:47.111Z,9.57
2018-12-15T00:23:15.832Z,8.70
2018-12-15T00:25:44.649Z,9.37
2018-12-15T00:28:13.356Z,8.17
2018-12-15T00:30:42.039Z,8.10
2018-12-15T00:33:10.780Z,7.47
2018-12-15T00:35:39.613Z,8.47
2018-12-15T00:38:08.343Z,8.80
2018-12-15T00:40:37.042Z,8.20
2018-12-15T00:43:05.677Z,7.53
2018-12-15T00:45:34.408Z,8.33
2018-12-15T00:48:03.166Z,8.40
2018-12-15T00:50:31.874Z,8.13
2018-12-15T00:53:00.579Z,8.00
2018-12-15T00:55:29.287Z,7.87
2018-12-15T00:57:57.935Z,8.57
2018-12-15T01:00:27.412Z,8.13
2018-12-15T01:02:56.189Z,7.87
2018-12-15T01:05:24.986Z,8.07
2018-12-15T01:07:53.759Z,7.90
2018-12-15T01:10:22.527Z,7.77
2018-12-15T01:12:51.223Z,7.87
2018-12-15T01:15:24.239Z,8.77
2018-12-15T01:17:52.945Z,8.40
2018-12-15T01:20:21.752Z,8.57
2018-12-15T01:22:50.610Z,8.17
2018-12-15T01:25:19.299Z,9.27
2018-12-15T01:27:48.085Z,9.90
2018-12-15T01:30:16.742Z,7.63
2018-12-15T01:32:45.464Z,8.90
2018-12-15T01:35:14.134Z,8.90
2018-12-15T01:37:42.910Z,9.50
2018-12-15T01:40:11.687Z,9.33
2018-12-15T01:42:40.563Z,8.63
2018-12-15T01:45:09.352Z,9.00
2018-12-15T01:47:38.049Z,8.43
2018-12-15T01:50:06.800Z,8.93
2018-12-15T01:52:35.515Z,8.90
2018-12-15T01:55:04.367Z,8.33
2018-12-15T01:57:33.157Z,9.03
2018-12-15T02:00:01.970Z,8.57
2018-12-15T02:02:30.675Z,9.87
2018-12-15T02:04:59.433Z,8.87
2018-12-15T02:07:28.248Z,8.70
2018-12-15T02:09:57.211Z,8.30
2018-12-15T02:12:25.939Z,7.77
2018-12-15T02:14:54.723Z,8.23
2018-12-15T02:17:23.503Z,9.03
2018-12-15T02:19:52.488Z,7.57
2018-12-15T02:22:21.251Z,7.50
2018-12-15T02:24:50.069Z,6.60
2018-12-15T02:27:18.778Z,7.70
2018-12-15T02:29:47.490Z,7.17
2018-12-15T02:32:16.167Z,7.43
2018-12-15T02:34:44.804Z,7.70
2018-12-15T02:37:13.535Z,7.10
2018-12-15T02:39:42.349Z,6.93
2018-12-15T02:42:11.065Z,6.50
2018-12-15T02:44:39.702Z,7.30
2018-12-15T02:47:08.442Z,5.87
2018-12-15T02:49:37.146Z,5.67
2018-12-15T02:52:05.826Z,5.97
2018-12-15T02:54:34.512Z,6.33
2018-12-15T02:57:03.402Z,6.43
2018-12-15T02:59:32.124Z,5.67
2018-12-15T03:02:00.838Z,6.47
2018-12-15T03:04:29.555Z,6.40
2018-12-15T03:06:58.207Z,5.40
2018-12-15T03:09:27.193Z,5.93
2018-12-15T03:11:55.885Z,5.40
2018-12-15T03:14:24.586Z,5.30
2018-12-15T03:17:02.694Z,5.97
2018-12-15T03:19:31.406Z,5.67
2018-12-15T03:22:00.170Z,6.00
2018-12-15T03:24:29.280Z,5.80
2018-12-15T03:26:58.020Z,5.60
2018-12-15T03:29:26.857Z,5.77
2018-12-15T03:31:55.553Z,6.13
2018-12-15T03:34:24.196Z,5.50
2018-12-15T03:36:52.898Z,6.17
2018-12-15T03:39:22.236Z,5.87
2018-12-15T03:41:51.039Z,5.80
2018-12-15T03:44:19.788Z,5.67
2018-12-15T03:46:48.556Z,6.23
2018-12-15T03:49:17.227Z,6.33
2018-12-15T03:51:45.891Z,6.63
2018-12-15T03:54:14.570Z,6.17
2018-12-15T03:56:43.338Z,6.13
2018-12-15T03:59:12.044Z,5.30
2018-12-15T04:01:40.805Z,5.73
2018-12-15T04:04:09.514Z,6.00
2018-12-15T04:06:38.455Z,5.83
2018-12-15T04:09:07.233Z,6.57
2018-12-15T04:11:35.999Z,5.93
2018-12-15T04:14:04.805Z,5.87
2018-12-15T04:16:33.582Z,6.13
2018-12-15T04:19:02.393Z,5.87
2018-12-15T04:21:31.112Z,5.40
2018-12-15T04:23:59.779Z,5.90
2018-12-15T04:26:28.484Z,5.73
2018-12-15T04:28:57.133Z,5.57
2018-12-15T04:31:25.882Z,5.77
2018-12-15T04:33:54.606Z,5.93
2018-12-15T04:36:23.433Z,6.50
2018-12-15T04:38:52.317Z,5.80
2018-12-15T04:41:21.022Z,5.73
2018-12-15T04:43:50.018Z,5.67
2018-12-15T04:46:18.855Z,5.97
2018-12-15T04:48:47.566Z,5.10
2018-12-15T04:51:16.216Z,5.77
2018-12-15T04:53:44.990Z,5.90
2018-12-15T04:56:13.683Z,6.43
2018-12-15T04:58:42.396Z,6.37
2018-12-15T05:01:11.100Z,6.70
2018-12-15T05:03:39.886Z,6.90
2018-12-15T05:06:08.672Z,6.33
2018-12-15T05:08:37.303Z,6.63
2018-12-15T05:11:06.020Z,6.73
2018-12-15T05:13:34.708Z,6.43
2018-12-15T05:16:03.511Z,5.93
2018-12-15T05:18:32.281Z,5.90
2018-12-15T05:21:00.969Z,6.73
2018-12-15T05:23:29.679Z,6.17
2018-12-15T05:25:58.327Z,6.70
2018-12-15T05:28:27.035Z,6.33
2018-12-15T05:30:55.877Z,7.17
2018-12-15T05:33:24.617Z,6.77
2018-12-15T05:35:53.282Z,7.30
2018-12-15T05:38:21.939Z,6.97
2018-12-15T05:40:50.721Z,7.23
2018-12-15T05:43:19.513Z,7.17
2018-12-15T05:45:48.225Z,8.37
2018-12-15T05:48:16.946Z,7.30
2018-12-15T05:50:45.656Z,7.57
2018-12-15T05:53:14.362Z,7.47
2018-12-15T05:55:43.170Z,7.57
2018-12-15T05:58:11.898Z,7.67
2018-12-15T06:00:40.687Z,7.57
2018-12-15T06:03:09.384Z,7.80
2018-12-15T06:05:38.362Z,8.93
2018-12-15T06:08:07.184Z,8.00
2018-12-15T06:10:36.058Z,7.53
2018-12-15T06:13:04.781Z,8.10
2018-12-15T06:15:33.498Z,7.90
2018-12-15T06:18:02.312Z,8.13
2018-12-15T06:20:31.107Z,7.30
2018-12-15T06:22:59.785Z,7.57
2018-12-15T06:25:28.450Z,8.17
2018-12-15T06:27:57.173Z,7.63
2018-12-15T06:30:25.943Z,7.57
2018-12-15T06:32:54.776Z,8.20
2018-12-15T06:35:23.506Z,8.83
2018-12-15T06:37:52.161Z,7.90
2018-12-15T06:40:20.935Z,8.23
2018-12-15T06:42:49.668Z,8.53
2018-12-15T06:45:18.423Z,8.50
2018-12-15T06:47:47.077Z,8.93
2018-12-15T06:50:15.811Z,8.60
2018-12-15T06:52:44.556Z,7.73
2018-12-15T06:55:13.349Z,7.57
2018-12-15T06:57:42.019Z,8.33
2018-12-15T07:00:10.871Z,7.80
2018-12-15T07:02:39.555Z,8.77
2018-12-15T07:05:08.336Z,7.50
2018-12-15T07:07:37.287Z,8.30
2018-12-15T07:10:06.084Z,7.73
2018-12-15T07:12:34.746Z,8.83
2018-12-15T07:15:03.638Z,7.83
2018-12-15T07:17:32.389Z,8.07
2018-12-15T07:20:01.135Z,8.33
2018-12-15T07:22:29.900Z,8.70
2018-12-15T07:24:58.758Z,8.27
2018-12-15T07:27:27.463Z,8.77
2018-12-15T07:29:56.191Z,8.47
2018-12-15T07:32:24.857Z,8.37
2018-12-15T07:34:53.603Z,8.80
2018-12-15T07:37:22.380Z,8.20
2018-12-15T07:39:51.041Z,8.13
2018-12-15T07:42:19.789Z,8.87
2018-12-15T07:44:48.571Z,8.77
2018-12-15T07:47:17.361Z,9.13
2018-12-15T07:49:46.025Z,9.27
2018-12-15T07:52:14.679Z,8.30
2018-12-15T07:54:43.418Z,8.67
2018-12-15T07:57:12.118Z,9.50
2018-12-15T07:59:40.910Z,9.23
2018-12-15T08:02:09.675Z,9.37
2018-12-15T08:04:38.402Z,9.30
2018-12-15T08:07:07.166Z,8.97
2018-12-15T08:09:36.044Z,9.50
2018-12-15T08:12:10.182Z,10.17
2018-12-15T08:14:38.842Z,9.77
2018-12-15T08:17:07.758Z,10.37
2018-12-15T08:19:36.526Z,9.17
2018-12-15T08:22:05.445Z,9.80
2018-12-15T08:24:34.212Z,9.13
2018-12-15T08:27:03.026Z,9.47
2018-12-15T08:29:31.726Z,10.53
2018-12-15T08:32:00.567Z,9.13
2018-12-15T08:34:29.374Z,10.17
2018-12-15T08:36:58.162Z,10.37
2018-12-15T08:39:26.870Z,10.13
2018-12-15T08:41:55.748Z,10.03
2018-12-15T08:44:24.622Z,9.87
2018-12-15T08:46:53.288Z,10.40
2018-12-15T08:49:22.018Z,10.30
2018-12-15T08:51:50.672Z,10.20
2018-12-15T08:54:19.387Z,10.73
2018-12-15T08:56:48.242Z,10.00
2018-12-15T08:59:17.018Z,10.40
2018-12-15T09:01:45.827Z,11.37
2018-12-15T09:04:14.585Z,11.13
2018-12-15T09:06:43.292Z,10.73
2018-12-15T09:09:11.956Z,10.17
2018-12-15T09:11:40.752Z,10.10
2018-12-15T09:14:09.434Z,10.70
2018-12-15T09:16:38.236Z,10.60
2018-12-15T09:19:11.300Z,11.23
2018-12-15T09:21:37.674Z,10.63
2018-12-15T09:24:06.558Z,10.17
2018-12-15T09:26:35.367Z,10.90
2018-12-15T09:29:04.167Z,10.10
2018-12-15T09:31:32.970Z,10.50
2018-12-15T09:34:01.716Z,10.17
2018-12-15T09:36:30.562Z,11.20
2018-12-15T09:38:59.343Z,11.03
2018-12-15T09:41:28.062Z,10.90
2018-12-15T09:43:56.810Z,10.97
2018-12-15T09:46:25.669Z,10.77
2018-12-15T09:48:54.403Z,10.93
2018-12-15T09:51:23.086Z,10.77
2018-12-15T09:53:51.831Z,11.00
2018-12-15T09:56:20.602Z,10.80
2018-12-15T09:58:49.543Z,10.70
2018-12-15T10:01:18.888Z,12.40
2018-12-15T10:03:47.714Z,11.30
2018-12-15T10:06:16.425Z,11.93
2018-12-15T10:08:45.327Z,11.70
2018-12-15T10:11:14.094Z,11.47
2018-12-15T10:13:42.821Z,11.60
2018-12-15T10:16:11.684Z,13.30
2018-12-15T10:18:40.398Z,12.20
2018-12-15T10:21:09.161Z,12.63
2018-12-15T10:23:37.964Z,11.67
2018-12-15T10:26:06.741Z,11.73
2018-12-15T10:28:35.521Z,12.03
2018-12-15T10:31:09.755Z,11.93
2018-12-15T10:33:38.567Z,11.77
2018-12-15T10:36:07.418Z,11.90
2018-12-15T10:38:36.156Z,12.73
2018-12-15T10:41:05.100Z,11.63
2018-12-15T10:43:33.777Z,12.47
2018-12-15T10:46:02.546Z,13.27
2018-12-15T10:48:31.317Z,12.70
2018-12-15T10:51:00.129Z,13.23
2018-12-15T10:53:29.243Z,11.93
2018-12-15T10:55:57.890Z,13.20
2018-12-15T10:58:26.611Z,13.17
2018-12-15T11:00:59.132Z,11.57
2018-12-15T11:03:27.887Z,12.40
2018-12-15T11:05:56.650Z,12.47
2018-12-15T11:08:25.515Z,12.30
2018-12-15T11:10:54.290Z,12.70
2018-12-15T11:13:23.030Z,12.77
2018-12-15T11:15:51.752Z,13.80
2018-12-15T11:18:20.702Z,12.43
2018-12-15T11:20:49.424Z,12.70
2018-12-15T11:23:18.180Z,13.27
2018-12-15T11:25:46.926Z,12.97
2018-12-15T11:28:15.759Z,13.00
2018-12-15T11:30:44.415Z,12.03
2018-12-15T11:33:13.214Z,12.93
2018-12-15T11:35:41.939Z,12.93
2018-12-15T11:38:10.752Z,12.80
2018-12-15T11:40:39.446Z,12.70
2018-12-15T11:43:08.216Z,13.07
2018-12-15T11:45:37.003Z,13.20
2018-12-15T11:48:05.826Z,13.43
2018-12-15T11:50:34.689Z,13.50
2018-12-15T11:53:03.523Z,12.57
2018-12-15T11:55:32.295Z,14.73
2018-12-15T11:58:00.964Z,13.37
2018-12-15T12:00:29.895Z,13.57
2018-12-15T12:02:58.625Z,13.60
2018-12-15T12:05:27.444Z,14.50
2018-12-15T12:07:56.180Z,13.67
2018-12-15T12:10:24.918Z,12.77
2018-12-15T12:12:53.708Z,13.87
2018-12-15T12:15:22.510Z,13.67
2018-12-15T12:17:51.261Z,13.73
2018-12-15T12:20:20.128Z,13.40
2018-12-15T12:22:48.994Z,15.13
2018-12-15T12:25:17.744Z,13.83
2018-12-15T12:27:46.598Z,15.30
2018-12-15T12:30:15.364Z,13.97
2018-12-15T12:32:44.082Z,13.47
2018-12-15T12:35:12.900Z,15.73
2018-12-15T12:37:41.710Z,14.13
2018-12-15T12:40:10.434Z,13.67
2018-12-15T12:42:39.122Z,15.10
2018-12-15T12:45:07.936Z,14.87
2018-12-15T12:47:36.656Z,14.30
2018-12-15T12:50:06.100Z,14.40
2018-12-15T12:52:34.911Z,13.80
2018-12-15T12:55:03.987Z,14.83
2018-12-15T12:57:32.779Z,13.67
2018-12-15T13:00:01.491Z,14.63
2018-12-15T13:02:30.329Z,14.30
2018-12-15T13:04:59.064Z,14.80
2018-12-15T13:07:27.870Z,13.07
2018-12-15T13:09:56.692Z,14.33
2018-12-15T13:12:25.400Z,13.80
2018-12-15T13:14:54.193Z,13.23
2018-12-15T13:17:22.977Z,14.07
2018-12-15T13:19:51.684Z,14.10
2018-12-15T13:22:20.397Z,14.60
2018-12-15T13:24:49.237Z,14.53
2018-12-15T13:27:18.085Z,15.07
2018-12-15T13:29:47.112Z,15.33
2018-12-15T13:32:15.925Z,14.10
2018-12-15T13:34:44.868Z,14.13
2018-12-15T13:37:13.637Z,14.93
2018-12-15T13:39:42.321Z,13.97
2018-12-15T13:42:11.209Z,14.47
2018-12-15T13:44:40.009Z,14.50
2018-12-15T13:47:08.809Z,14.50
2018-12-15T13:49:37.606Z,14.03
2018-12-15T13:52:06.431Z,15.63
2018-12-15T13:54:35.212Z,15.00
2018-12-15T13:57:03.996Z,15.43
2018-12-15T13:59:32.764Z,13.83
2018-12-15T14:02:01.623Z,14.20
2018-12-15T14:04:30.392Z,15.00
2018-12-15T14:06:59.290Z,15.03
2018-12-15T14:09:27.990Z,15.23
2018-12-15T14:11:56.634Z,15.57
2018-12-15T14:14:25.386Z,15.37
2018-12-15T14:16:54.314Z,14.13
2018-12-15T14:19:23.156Z,15.93
2018-12-15T14:21:51.844Z,16.53
2018-12-15T14:24:20.526Z,14.83
2018-12-15T14:26:49.420Z,15.87
2018-12-15T14:29:18.131Z,14.63
2018-12-15T14:31:46.816Z,14.53
2018-12-15T14:34:15.598Z,15.53
2018-12-15T14:36:44.394Z,15.97
2018-12-15T14:39:13.172Z,15.53
2018-12-15T14:41:41.870Z,15.33
2018-12-15T14:44:10.702Z,15.33
2018-12-15T14:46:39.413Z,15.63
2018-12-15T14:49:08.190Z,15.63
2018-12-15T14:51:37.005Z,15.70
2018-12-15T14:54:05.798Z,19.60
2018-12-15T14:56:34.587Z,15.77
2018-12-15T14:59:03.406Z,15.53
2018-12-15T15:01:32.185Z,15.03
2018-12-15T15:04:00.890Z,15.70
2018-12-15T15:06:29.785Z,15.93
2018-12-15T15:08:58.817Z,14.67
2018-12-15T15:11:27.549Z,15.67
2018-12-15T15:13:56.313Z,14.00
2018-12-15T15:16:25.079Z,14.47
2018-12-15T15:18:53.953Z,15.50
2018-12-15T15:21:22.665Z,15.90
2018-12-15T15:23:51.453Z,15.50
2018-12-15T15:26:20.169Z,16.10
2018-12-15T15:28:48.887Z,15.00
2018-12-15T15:31:17.695Z,14.50
2018-12-15T15:33:46.516Z,16.63
2018-12-15T15:36:15.347Z,14.67
2018-12-15T15:38:44.174Z,15.57
2018-12-15T15:41:12.954Z,16.07
2018-12-15T15:43:41.714Z,16.43
2018-12-15T15:46:10.407Z,15.90
2018-12-15T15:48:39.181Z,15.07
2018-12-15T15:51:07.970Z,15.30
2018-12-15T15:53:36.897Z,15.77
2018-12-15T15:56:05.674Z,16.23
2018-12-15T15:58:34.458Z,16.17
2018-12-15T16:01:03.447Z,17.27
2018-12-15T16:03:32.299Z,16.50
2018-12-15T16:06:01.072Z,17.13
2018-12-15T16:08:29.761Z,16.57
2018-12-15T16:10:58.402Z,16.47
2018-12-15T16:13:27.247Z,15.63
2018-12-15T16:15:56.054Z,15.67
2018-12-15T16:18:24.743Z,17.87
2018-12-15T16:20:53.569Z,16.40
2018-12-15T16:23:22.494Z,16.93
2018-12-15T16:25:51.277Z,17.23
2018-12-15T16:28:20.080Z,16.27
2018-12-15T16:30:48.895Z,17.40
2018-12-15T16:33:17.616Z,17.33
2018-12-15T16:35:46.388Z,17.53
2018-12-15T16:38:15.204Z,16.40
2018-12-15T16:40:50.066Z,17.13
2018-12-15T16:43:18.878Z,17.27
2018-12-15T16:45:47.602Z,16.30
2018-12-15T16:48:16.334Z,17.80
2018-12-15T16:50:49.925Z,17.03
2018-12-15T16:53:15.941Z,16.77
2018-12-15T16:55:44.659Z,16.57
2018-12-15T16:58:13.428Z,17.17
2018-12-15T17:00:42.155Z,17.27
2018-12-15T17:03:10.842Z,17.50
2018-12-15T17:05:39.587Z,18.53
2018-12-15T17:08:08.333Z,17.23
2018-12-15T17:10:37.001Z,17.83
2018-12-15T17:13:05.797Z,18.37
2018-12-15T17:15:34.523Z,17.00
2018-12-15T17:18:03.407Z,17.63
2018-12-15T17:20:32.265Z,17.63
2018-12-15T17:23:00.996Z,19.13
2018-12-15T17:25:29.772Z,17.17
2018-12-15T17:27:58.669Z,18.00
2018-12-15T17:30:27.398Z,18.47
2018-12-15T17:32:56.262Z,18.10
2018-12-15T17:35:25.107Z,16.90
2018-12-15T17:37:53.987Z,19.00
2018-12-15T17:40:22.721Z,17.70
2018-12-15T17:42:51.519Z,17.87
2018-12-15T17:45:20.265Z,17.53
2018-12-15T17:47:48.960Z,18.43
2018-12-15T17:50:17.778Z,18.70
2018-12-15T17:52:46.576Z,18.90
2018-12-15T17:55:15.405Z,18.77
2018-12-15T17:57:44.222Z,18.97
2018-12-15T18:00:13.800Z,19.53
2018-12-15T18:02:43.846Z,20.10
2018-12-15T18:05:12.908Z,18.93
2018-12-15T18:07:41.686Z,19.37
2018-12-15T18:10:10.494Z,17.97
2018-12-15T18:12:39.228Z,17.87
2018-12-15T18:15:08.233Z,19.43
2018-12-15T18:17:36.988Z,18.97
2018-12-15T18:20:07.172Z,19.00
2018-12-15T18:22:35.915Z,18.40
2018-12-15T18:25:05.233Z,18.27
2018-12-15T18:27:33.928Z,18.13
2018-12-15T18:30:02.878Z,18.37
2018-12-15T18:32:31.658Z,19.00
2018-12-15T18:35:00.655Z,17.80
2018-12-15T18:37:29.631Z,18.10
2018-12-15T18:39:58.565Z,18.60
2018-12-15T18:42:27.626Z,18.90
2018-12-15T18:44:56.628Z,18.23
2018-12-15T18:47:25.629Z,19.23
2018-12-15T18:49:54.556Z,18.43
2018-12-15T18:52:23.477Z,19.50
2018-12-15T18:54:52.291Z,19.23
2018-12-15T18:57:21.082Z,18.83
2018-12-15T18:59:50.065Z,18.13
2018-12-15T19:02:18.953Z,18.90
2018-12-15T19:04:47.705Z,19.90
2018-12-15T19:07:16.524Z,19.60
2018-12-15T19:09:45.285Z,19.63
2018-12-15T19:12:14.107Z,20.07
2018-12-15T19:14:42.848Z,19.60
2018-12-15T19:17:11.659Z,19.87
2018-12-15T19:19:40.355Z,17.67
2018-12-15T19:22:09.105Z,19.17
2018-12-15T19:24:37.916Z,19.47
2018-12-15T19:27:06.782Z,19.97
2018-12-15T19:29:36.252Z,20.17
2018-12-15T19:32:05.108Z,19.17
2018-12-15T19:34:33.952Z,20.13
2018-12-15T19:37:02.644Z,19.97
2018-12-15T19:39:31.480Z,23.10
2018-12-15T19:42:00.337Z,20.97
2018-12-15T19:44:29.116Z,20.60
2018-12-15T19:46:57.785Z,20.33
2018-12-15T19:49:26.464Z,20.70
2018-12-15T19:51:55.212Z,21.00
2018-12-15T19:54:23.960Z,19.33
2018-12-15T19:56:52.694Z,21.10
2018-12-15T19:59:21.388Z,20.43
2018-12-15T20:01:50.212Z,20.27
2018-12-15T20:04:19.166Z,20.67
2018-12-15T20:06:47.954Z,20.07
2018-12-15T20:09:16.752Z,20.67
2018-12-15T20:11:45.524Z,20.27
2018-12-15T20:14:14.230Z,20.93
2018-12-15T20:16:42.908Z,20.10
2018-12-15T20:19:11.673Z,20.83
2018-12-15T20:21:40.406Z,21.23
2018-12-15T20:24:09.280Z,20.63
2018-12-15T20:26:38.025Z,21.20
2018-12-15T20:29:07.026Z,21.13
2018-12-15T20:31:35.780Z,21.17
2018-12-15T20:34:04.515Z,21.00
2018-12-15T20:36:33.245Z,20.37
2018-12-15T20:39:02.010Z,22.87
2018-12-15T20:41:30.841Z,21.70
2018-12-15T20:43:59.637Z,21.37
2018-12-15T20:46:28.433Z,21.17
2018-12-15T20:48:57.244Z,21.57
2018-12-15T20:51:25.911Z,21.50
2018-12-15T20:53:54.636Z,20.53
2018-12-15T20:56:23.296Z,22.03
2018-12-15T20:58:52.106Z,21.77
2018-12-15T21:01:21.098Z,20.67
2018-12-15T21:03:49.897Z,22.57
2018-12-15T21:06:18.633Z,21.67
2018-12-15T21:08:47.412Z,22.00
2018-12-15T21:11:16.072Z,21.20
2018-12-15T21:13:44.978Z,21.90
2018-12-15T21:16:13.698Z,22.40
2018-12-15T21:18:42.468Z,22.90
2018-12-15T21:21:11.306Z,22.03
2018-12-15T21:23:40.072Z,21.07
2018-12-15T21:26:08.860Z,21.97
2018-12-15T21:28:38.539Z,22.20
2018-12-15T21:31:07.268Z,22.20
2018-12-15T21:33:36.228Z,23.20
2018-12-15T21:36:05.032Z,20.90
2018-12-15T21:38:33.772Z,22.13
2018-12-15T21:41:02.587Z,22.13
2018-12-15T21:43:31.273Z,22.17
2018-12-15T21:45:59.981Z,23.10
2018-12-15T21:48:28.789Z,21.73
2018-12-15T21:50:57.540Z,22.67
2018-12-15T21:53:26.295Z,22.90
2018-12-15T21:55:54.961Z,22.73
2018-12-15T21:58:23.677Z,24.03
2018-12-15T22:00:52.443Z,22.13
2018-12-15T22:03:21.171Z,22.30
2018-12-15T22:05:49.921Z,22.73
2018-12-15T22:08:18.695Z,24.93
2018-12-15T22:10:47.451Z,24.30
2018-12-15T22:13:16.258Z,22.30
2018-12-15T22:15:45.070Z,24.73
2018-12-15T22:18:13.802Z,24.13
2018-12-15T22:20:42.974Z,24.03
2018-12-15T22:23:11.701Z,24.70
2018-12-15T22:25:40.476Z,23.30
2018-12-15T22:28:09.187Z,24.50
2018-12-15T22:30:37.987Z,23.87
2018-12-15T22:33:06.717Z,23.70
2018-12-15T22:35:35.462Z,24.20
2018-12-15T22:38:04.288Z,24.43
2018-12-15T22:40:33.087Z,24.43
2018-12-15T22:43:01.810Z,25.73
2018-12-15T22:45:30.542Z,24.80
2018-12-15T22:47:59.269Z,25.60
2018-12-15T22:50:28.055Z,24.03
2018-12-15T22:52:56.719Z,24.57
2018-12-15T22:55:25.471Z,25.17
2018-12-15T22:57:54.161Z,25.90
2018-12-15T23:00:23.067Z,24.47
2018-12-15T23:02:52.011Z,24.10
2018-12-15T23:05:20.869Z,23.57
2018-12-15T23:07:49.523Z,25.23
2018-12-15T23:10:18.341Z,25.40
2018-12-15T23:12:46.999Z,22.63
2018-12-15T23:15:15.833Z,23.37
2018-12-15T23:17:44.623Z,23.60
2018-12-15T23:20:13.420Z,25.03
2018-12-15T23:22:42.189Z,23.57
2018-12-15T23:25:10.956Z,24.20
2018-12-15T23:27:39.754Z,24.07
2018-12-15T23:30:08.671Z,23.90
2018-12-15T23:32:37.447Z,24.00
2018-12-15T23:35:06.359Z,22.93
2018-12-15T23:37:35.120Z,25.50
2018-12-15T23:40:04.130Z,23.50
2018-12-15T23:42:32.880Z,24.43
2018-12-15T23:45:01.607Z,24.57
2018-12-15T23:47:30.300Z,23.90
2018-12-15T23:49:59.009Z,25.47
2018-12-15T23:52:27.730Z,23.57
2018-12-15T23:54:56.396Z,24.33
2018-12-15T23:57:25.174Z,23.60
2018-12-15T23:59:54.071Z,22.90
